Flight Track Log - Related Links

Times and Time Zones

All times are in EDT time to prevent confusion due to time zone crossing. See the SWA1810 flight status page for this flight to view local times or setup timezone preferences in your user account.

Time Position Orientation Groundspeed Altitude Reporting Facility
EDT Latitude Longitude Course Direction KTS MPH feet Rate Location/Type
Fri 12:58:53 PM 39.9928 -82.8683 91° East 142 163 1,600  Level Indianapolis Center
Fri 12:59:23 PM 39.9925 -82.8411 91° East 158 182 2,400 1,765 Climbing Indianapolis Center
Fri 01:00:01 PM 39.9933 -82.7997 88° East 188 216 3,600 2,836 Climbing Indianapolis Center
Fri 01:00:18 PM 39.9908 -82.7700 96° East 222 255 5,000 3,097 Climbing Indianapolis Center
Fri 01:01:03 PM 39.9903 -82.7178 91° East 213 245 6,800 2,748 Climbing Indianapolis Center
Fri 01:02:05 PM 40.0369 -82.7317 347° North 242 278 9,900 2,177 Climbing Indianapolis Center
Fri 01:03:07 PM 40.0322 -82.8633 267° West 333 383 11,300 2,226 Climbing Indianapolis Center
Fri 01:04:09 PM 40.0586 -82.9903 285° West 360 414 14,500 3,000 Climbing Indianapolis Center
Fri 01:05:11 PM 40.0847 -83.1208 285° West 369 425 17,500 2,661 Climbing Indianapolis Center
Fri 01:06:13 PM 40.1103 -83.2550 284° West 379 436 20,000 2,400 Climbing Indianapolis Center
Fri 01:07:16 PM 40.1358 -83.3878 284° West 379 436 22,500 2,400 Climbing Indianapolis Center
Fri 01:08:18 PM 40.1667 -83.5450 284° West 382 440 25,000 2,323 Climbing Indianapolis Center
Fri 01:09:20 PM 40.1936 -83.6844 284° West 393 452 27,300 2,371 Climbing Indianapolis Center
Fri 01:10:22 PM 40.2175 -83.8144 284° West 371 427 29,900 1,306 Climbing Indianapolis Center
Fri 01:11:24 PM 40.2433 -83.9436 285° West 366 421 30,000 581 Climbing Indianapolis Center
Fri 01:12:26 PM 40.2681 -84.0747 284° West 371 427 31,100 1,548 Climbing Indianapolis Center
Fri 01:13:28 PM 40.2922 -84.2028 284° West 363 418 33,200 1,887 Climbing Indianapolis Center
Fri 01:14:30 PM 40.3139 -84.3242 283° West 344 396 35,000 1,355 Climbing Indianapolis Center
Fri 01:15:32 PM 40.3400 -84.4661 284° West 340 391 36,000 484 Climbing Indianapolis Center
Fri 01:16:34 PM 40.3639 -84.5881 284° West 342 394 36,000  Level Indianapolis Center
Fri 01:17:36 PM 40.3856 -84.7111 283° West 344 396 36,000 145 Level Indianapolis Center
Fri 01:18:38 PM 40.4078 -84.8344 283° West 346 398 36,300 677 Climbing Indianapolis Center
Fri 01:19:40 PM 40.4297 -84.9553 283° West 350 403 37,400 823 Climbing Indianapolis Center
Fri 01:20:42 PM 40.4550 -85.0972 283° West 343 395 38,000 290 Climbing Indianapolis Center
Fri 01:21:44 PM 40.4764 -85.2225 283° West 347 399 38,000  Level Indianapolis Center
Fri 01:22:00 PM 40.4808 -85.2428 286° West 350 403 38,000  Level Chicago Center
Fri 01:23:02 PM 40.5061 -85.3872 283° West 347 399 38,000  Level Chicago Center
Fri 01:24:04 PM 40.5286 -85.5136 283° West 353 406 38,000  Level Chicago Center
Fri 01:25:06 PM 40.5494 -85.6361 283° West 345 397 38,000  Level Chicago Center
Fri 01:26:08 PM 40.5708 -85.7600 283° West 346 398 38,000  Level Chicago Center
Fri 01:27:11 PM 40.5922 -85.8836 283° West 346 398 38,000  Level Chicago Center
Fri 01:28:13 PM 40.6131 -86.0064 283° West 344 396 38,000  Level Chicago Center
Fri 01:29:15 PM 40.6375 -86.1500 283° West 344 396 38,000  Level Chicago Center
Fri 01:30:17 PM 40.6581 -86.2739 282° West 345 397 38,000  Level Chicago Center
Fri 01:31:19 PM 40.6786 -86.3972 282° West 345 397 38,000  Level Chicago Center
Fri 01:32:22 PM 40.6975 -86.5133 282° West 346 398 38,000  Level Chicago Center
Fri 01:33:23 PM 40.7217 -86.6628 282° West 353 406 38,000  Level Chicago Center
Fri 01:34:25 PM 40.7439 -86.7853 284° West 345 397 38,000  Level Chicago Center
Fri 01:35:27 PM 40.7642 -86.9092 282° West 345 397 38,000  Level Chicago Center
Fri 01:36:29 PM 40.7844 -87.0339 282° West 349 402 38,000  Level Chicago Center
Fri 01:37:31 PM 40.8036 -87.1606 281° West 351 404 38,000  Level Chicago Center
Fri 01:38:34 PM 40.8272 -87.3103 282° West 350 403 38,000  Level Chicago Center
Fri 01:39:36 PM 40.8467 -87.4356 282° West 350 403 38,000  Level Chicago Center
Fri 01:40:38 PM 40.8650 -87.5603 281° West 348 400 38,000  Level Chicago Center
Fri 01:41:40 PM 40.8844 -87.6864 282° West 350 403 38,000  Level Chicago Center
Fri 01:42:42 PM 40.9031 -87.8111 281° West 349 402 38,000  Level Chicago Center
Fri 01:43:44 PM 40.9233 -87.9369 282° West 351 404 38,000  Level Chicago Center
Fri 01:44:46 PM 40.9453 -88.0892 281° West 351 404 38,000  Level Chicago Center
Fri 01:45:48 PM 40.9647 -88.2183 281° West 356 410 38,000  Level Chicago Center
Fri 01:46:50 PM 40.9839 -88.3453 281° West 354 407 38,000  Level Chicago Center
Fri 01:47:52 PM 41.0025 -88.4753 281° West 357 411 38,000  Level Chicago Center
Fri 01:48:55 PM 41.0214 -88.6050 281° West 358 412 38,000  Level Chicago Center
Fri 01:49:57 PM 41.0408 -88.7367 281° West 364 419 38,000  Level Chicago Center
Fri 01:50:59 PM 41.0603 -88.8669 281° West 362 417 38,000  Level Chicago Center
Fri 01:52:01 PM 41.0825 -89.0233 281° West 360 414 38,000  Level Chicago Center
Fri 01:53:03 PM 41.1011 -89.1533 281° West 361 415 38,000  Level Chicago Center
Fri 01:54:05 PM 41.1178 -89.2750 280° West 361 415 38,000  Level Chicago Center
Fri 01:55:07 PM 41.1358 -89.4042 281° West 359 413 38,000  Level Chicago Center
Fri 01:56:09 PM 41.1572 -89.5600 280° West 360 414 38,000  Level Chicago Center
Fri 01:57:11 PM 41.1767 -89.6903 281° West 362 417 38,000  Level Chicago Center
Fri 01:58:13 PM 41.1972 -89.8208 282° West 365 420 38,000  Level Chicago Center
Fri 01:59:15 PM 41.2178 -89.9517 282° West 364 419 38,000  Level Chicago Center
Fri 02:00:17 PM 41.2358 -90.0839 280° West 367 422 38,000  Level Chicago Center
Fri 02:01:19 PM 41.2133 -90.2428 259° West 371 427 38,000  Level Chicago Center
Fri 02:02:22 PM 41.1950 -90.3808 260° West 379 436 38,000  Level Chicago Center
Fri 02:03:24 PM 41.1767 -90.5147 260° West 373 429 38,000  Level Chicago Center
Fri 02:04:26 PM 41.1581 -90.6489 260° West 372 428 38,000  Level Chicago Center
Fri 02:05:28 PM 41.1389 -90.7817 259° West 369 425 38,000  Level Chicago Center
Fri 02:06:30 PM 41.1161 -90.9422 259° West 370 426 38,000  Level Chicago Center
Fri 02:07:32 PM 41.0961 -91.0722 259° West 365 420 38,000  Level Chicago Center
Fri 02:08:34 PM 41.0786 -91.2044 260° West 364 419 38,000  Level Chicago Center
Fri 02:09:36 PM 41.0592 -91.3378 259° West 367 422 38,000  Level Chicago Center
Fri 02:10:38 PM 41.0392 -91.4719 259° West 372 428 38,000  Level Chicago Center
Fri 02:11:40 PM 41.0189 -91.6042 259° West 369 425 38,000  Level Chicago Center
Fri 02:12:43 PM 40.9969 -91.7503 259° West 374 430 38,000  Level Chicago Center
Fri 02:13:45 PM 40.9769 -91.8822 259° West 371 427 38,000  Level Chicago Center
Fri 02:14:47 PM 40.9522 -92.0431 259° West 373 429 38,000  Level Chicago Center
Fri 02:15:49 PM 40.9314 -92.1769 258° West 376 433 38,000  Level Chicago Center
Fri 02:16:51 PM 40.9100 -92.3106 258° West 375 432 38,000  Level Chicago Center
Fri 02:17:53 PM 40.8894 -92.4439 259° West 375 432 38,000  Level Chicago Center
Fri 02:18:55 PM 40.8683 -92.5764 258° West 374 430 38,000  Level Chicago Center
Fri 02:19:57 PM 40.8425 -92.7336 258° West 371 427 38,000  Level Chicago Center
Fri 02:20:59 PM 40.8214 -92.8639 258° West 368 423 38,000  Level Chicago Center
Fri 02:22:01 PM 40.8003 -92.9969 258° West 372 428 38,000  Level Chicago Center
Fri 02:23:04 PM 40.7781 -93.1297 258° West 374 430 38,000  Level Chicago Center
Fri 02:24:06 PM 40.7522 -93.2897 258° West 375 432 38,000  Level Chicago Center
Fri 02:25:08 PM 40.7292 -93.4250 257° West 381 438 38,000  Level Chicago Center
Fri 02:26:10 PM 40.7072 -93.5594 258° West 380 437 38,000  Level Chicago Center
Fri 02:27:12 PM 40.6844 -93.6928 257° West 376 433 38,000  Level Chicago Center
Fri 02:28:14 PM 40.6608 -93.8289 257° West 382 440 38,000  Level Chicago Center
Fri 02:29:25 PM 40.6317 -93.9911 257° West 384 442 38,000  Level Minneapolis Center
Fri 02:30:27 PM 40.6042 -94.1511 257° West 379 436 38,000  Level Minneapolis Center
Fri 02:31:29 PM 40.5797 -94.2864 257° West 381 438 38,000  Level Minneapolis Center
Fri 02:32:31 PM 40.5575 -94.4194 258° West 380 437 38,000  Level Minneapolis Center
Fri 02:33:33 PM 40.5308 -94.5664 257° West 380 437 38,000  Level Minneapolis Center
Fri 02:34:35 PM 40.5061 -94.7017 257° West 380 437 38,000  Level Minneapolis Center
Fri 02:35:37 PM 40.4828 -94.8361 257° West 378 435 38,000  Level Minneapolis Center
Fri 02:36:39 PM 40.4575 -94.9719 256° West 380 437 38,000  Level Minneapolis Center
Fri 02:37:41 PM 40.4336 -95.1067 257° West 380 437 38,000  Level Minneapolis Center
Fri 02:39:08 PM 40.3925 -95.3208 256° West 378 435 38,000  Level Minneapolis Center
Fri 02:40:10 PM 40.3544 -95.4508 249° West 378 435 38,000  Level Minneapolis Center
Fri 02:41:12 PM 40.3172 -95.5806 249° West 379 436 38,000  Level Minneapolis Center
Fri 02:42:15 PM 40.2806 -95.7103 250° West 379 436 38,000  Level Minneapolis Center
Fri 02:43:17 PM 40.2425 -95.8403 249° West 379 436 38,000  Level Minneapolis Center
Fri 02:44:19 PM 40.2056 -95.9681 249° West 378 435 38,000  Level Minneapolis Center
Fri 02:45:21 PM 40.1611 -96.1228 249° West 376 433 38,000  Level Minneapolis Center
Fri 02:46:23 PM 40.1228 -96.2556 249° West 382 440 38,000  Level Minneapolis Center
Fri 02:47:25 PM 40.0844 -96.3831 249° West 381 438 38,000  Level Minneapolis Center
Fri 02:48:27 PM 40.0450 -96.5131 248° West 381 438 38,000  Level Minneapolis Center
Fri 02:49:29 PM 40.0064 -96.6425 249° West 382 440 38,000  Level Minneapolis Center
Fri 02:50:31 PM 39.9681 -96.7744 249° West 384 442 38,000  Level Minneapolis Center
Fri 02:51:33 PM 39.9203 -96.9314 248° West 386 444 38,000  Level Minneapolis Center
Fri 02:52:35 PM 39.8806 -97.0642 249° West 389 448 38,000  Level Minneapolis Center
Fri 02:53:01 PM 39.8644 -97.1172 248° West 391 450 38,000  Level Kansas City Center
Fri 02:53:37 PM 39.8411 -97.1967 249° West 390 449 38,000  Level Minneapolis Center
Fri 02:54:39 PM 39.8003 -97.3306 248° West 394 453 38,000  Level Minneapolis Center
Fri 02:55:41 PM 39.7592 -97.4628 248° West 395 455 38,000  Level Minneapolis Center
Fri 02:56:44 PM 39.7197 -97.5933 249° West 394 453 38,000  Level Minneapolis Center
Fri 02:57:46 PM 39.6778 -97.7247 248° West 392 451 38,000  Level Minneapolis Center
Fri 02:59:11 PM 39.6153 -97.9244 248° West 396 456 38,000  Level Kansas City Center
Fri 03:00:15 PM 39.5744 -98.0558 248° West 396 456 38,000  Level Kansas City Center
Fri 03:00:58 PM 39.5467 -98.1456 248° West 395 455 38,000  Level Denver Center
Fri 03:02:13 PM 39.4892 -98.3281 248° West 392 451 38,000  Level Denver Center
Fri 03:03:15 PM 39.4475 -98.4586 248° West 392 451 38,000  Level Denver Center
Fri 03:04:17 PM 39.4056 -98.5892 247° West 393 452 38,000  Level Denver Center
Fri 03:05:19 PM 39.3644 -98.7189 248° West 391 450 38,000  Level Denver Center
Fri 03:06:21 PM 39.3231 -98.8486 248° West 391 450 38,000  Level Denver Center
Fri 03:07:23 PM 39.2778 -98.9867 247° West 390 449 38,000  Level Denver Center
Fri 03:09:33 PM 39.1844 -99.2722 247° West 393 452 38,000  Level Kansas City Center
Fri 03:10:34 PM 39.1406 -99.4031 247° West 396 456 38,000  Level Kansas City Center
Fri 03:11:38 PM 39.0983 -99.5328 247° West 395 455 38,000  Level Kansas City Center
Fri 03:12:39 PM 39.0539 -99.6667 247° West 395 455 38,000  Level Kansas City Center
Fri 03:13:42 PM 39.0061 -99.8111 247° West 395 455 38,000  Level Kansas City Center
Fri 03:14:43 PM 38.9647 -99.9356 247° West 395 455 38,000  Level Kansas City Center
Fri 03:15:44 PM 38.9161 -100.0783 246° West 393 452 38,000  Level Kansas City Center
Fri 03:16:48 PM 38.8756 -100.2008 247° West 391 450 38,000  Level Kansas City Center
Fri 03:17:48 PM 38.8269 -100.3428 246° West 391 450 38,000  Level Kansas City Center
Fri 03:18:52 PM 38.7850 -100.4658 246° West 393 452 38,000  Level Kansas City Center
Fri 03:19:52 PM 38.7417 -100.5897 246° West 397 457 38,000  Level Kansas City Center
Fri 03:20:55 PM 38.6925 -100.7336 246° West 397 457 38,000  Level Kansas City Center
Fri 03:21:56 PM 38.6494 -100.8572 246° West 398 458 38,000  Level Kansas City Center
Fri 03:23:00 PM 38.5997 -101.0017 246° West 399 459 38,000  Level Kansas City Center
Fri 03:24:01 PM 38.5564 -101.1244 246° West 397 457 38,000  Level Kansas City Center
Fri 03:25:09 PM 38.5008 -101.2833 246° West 393 452 38,000  Level Denver Center
Fri 03:26:11 PM 38.4369 -101.3881 232° Southwest 394 453 38,000  Level Denver Center
Fri 03:27:13 PM 38.3650 -101.5083 233° Southwest 386 444 38,000  Level Denver Center
Fri 03:28:16 PM 38.3247 -101.6281 247° West 386 444 38,000  Level Denver Center
Fri 03:29:17 PM 38.2756 -101.7681 246° West 388 447 38,000  Level Denver Center
Fri 03:30:19 PM 38.2331 -101.8889 246° West 392 451 38,000  Level Denver Center
Fri 03:31:21 PM 38.1831 -102.0283 246° West 390 449 38,000  Level Denver Center
Fri 03:32:23 PM 38.1408 -102.1494 246° West 391 450 38,000  Level Denver Center
Fri 03:33:25 PM 38.0908 -102.2906 246° West 392 451 38,000  Level Denver Center
Fri 03:34:27 PM 38.0475 -102.4125 246° West 397 457 38,000  Level Denver Center
Fri 03:35:29 PM 37.9978 -102.5508 246° West 400 460 38,000  Level Denver Center
Fri 03:36:31 PM 37.9522 -102.6761 245° Southwest 396 456 38,000  Level Denver Center
Fri 03:37:33 PM 37.9033 -102.8119 246° West 391 450 38,000  Level Denver Center
Fri 03:38:35 PM 37.8597 -102.9314 245° Southwest 392 451 38,000  Level Denver Center
Fri 03:39:37 PM 37.8086 -103.0725 245° Southwest 394 453 38,000  Level Denver Center
Fri 03:40:39 PM 37.7644 -103.1939 245° Southwest 397 457 38,000  Level Denver Center
Fri 03:41:41 PM 37.7203 -103.3156 245° Southwest 398 458 38,000  Level Denver Center
Fri 03:42:43 PM 37.6675 -103.4567 245° Southwest 398 458 38,000  Level Denver Center
Fri 03:43:45 PM 37.6222 -103.5781 245° Southwest 400 460 38,000  Level Denver Center
Fri 03:44:47 PM 37.5697 -103.7194 245° Southwest 398 458 38,000  Level Denver Center
Fri 03:45:49 PM 37.5242 -103.8406 245° Southwest 397 457 38,000  Level Denver Center
Fri 03:46:51 PM 37.4750 -103.9683 244° Southwest 396 456 38,000  Level Denver Center
Fri 03:47:53 PM 37.4294 -104.0875 244° Southwest 402 463 38,000  Level Denver Center
Fri 03:48:55 PM 37.3764 -104.2286 245° Southwest 398 458 38,000  Level Denver Center
Fri 03:49:57 PM 37.3225 -104.3683 244° Southwest 397 457 38,000  Level Denver Center
Fri 03:50:59 PM 37.2778 -104.4864 245° Southwest 394 453 38,000  Level Denver Center
Fri 03:52:01 PM 37.2256 -104.6219 244° Southwest 387 445 38,000  Level Denver Center
Fri 03:53:03 PM 37.1808 -104.7389 244° Southwest 387 445 38,000  Level Denver Center
Fri 03:54:17 PM 37.1292 -104.8750 245° Southwest 388 447 38,000  Level Denver Center
Fri 03:55:20 PM 37.0764 -105.0094 244° Southwest 387 445 38,000  Level Denver Center
Fri 03:56:22 PM 37.0228 -105.1433 243° Southwest 385 443 38,000  Level Denver Center
Fri 03:57:24 PM 36.9772 -105.2592 244° Southwest 387 445 38,000  Level Denver Center
Fri 03:58:26 PM 36.9278 -105.3939 245° Southwest 380 437 38,000  Level Denver Center
Fri 03:59:28 PM 36.8794 -105.5139 243° Southwest 388 447 38,000  Level Denver Center
Fri 03:59:52 PM 36.8583 -105.5719 246° West 391 450 38,000  Level Albuquerque Center
Fri 04:00:30 PM 36.8258 -105.6447 241° Southwest 391 450 38,000  Level Denver Center
Fri 04:01:32 PM 36.7797 -105.7617 244° Southwest 392 451 38,000  Level Denver Center
Fri 04:02:34 PM 36.7297 -105.8867 244° Southwest 390 449 38,000  Level Denver Center
Fri 04:03:36 PM 36.6797 -106.0069 243° Southwest 389 448 38,000  Level Denver Center
Fri 04:04:38 PM 36.6317 -106.1278 244° Southwest 390 449 38,000  Level Denver Center
Fri 04:05:02 PM 36.6069 -106.1928 245° Southwest 392 451 38,000  Level Albuquerque Center
Fri 04:06:04 PM 36.5597 -106.3078 243° Southwest 391 450 38,000  Level Albuquerque Center
Fri 04:07:06 PM 36.5064 -106.4431 244° Southwest 389 448 38,000  Level Albuquerque Center
Fri 04:08:08 PM 36.4586 -106.5586 243° Southwest 393 452 38,000  Level Albuquerque Center
Fri 04:08:46 PM 36.4281 -106.6336 243° Southwest 389 448 38,000  Level Denver Center
Fri 04:09:48 PM 36.3714 -106.7675 242° Southwest 391 450 38,000  Level Denver Center
Fri 04:10:12 PM 36.3556 -106.8083 244° Southwest 392 451 38,000  Level Albuquerque Center
Fri 04:11:14 PM 36.2997 -106.9414 243° Southwest 390 449 38,000  Level Albuquerque Center
Fri 04:12:16 PM 36.2522 -107.0589 243° Southwest 396 456 38,000  Level Albuquerque Center
Fri 04:13:21 PM 36.1958 -107.1933 243° Southwest 395 455 38,000  Level Albuquerque Center
Fri 04:14:20 PM 36.1464 -107.3092 242° Southwest 396 456 38,000  Level Albuquerque Center
Fri 04:15:22 PM 36.0908 -107.4439 243° Southwest 394 453 38,000  Level Albuquerque Center
Fri 04:16:24 PM 36.0422 -107.5589 242° Southwest 394 453 38,000  Level Albuquerque Center
Fri 04:17:26 PM 35.9836 -107.6661 236° Southwest 392 451 38,000  Level Albuquerque Center
Fri 04:18:28 PM 35.9144 -107.7906 236° Southwest 393 452 38,000  Level Albuquerque Center
Fri 04:19:30 PM 35.8553 -107.8953 235° Southwest 390 449 38,000  Level Albuquerque Center
Fri 04:20:32 PM 35.7853 -108.0183 235° Southwest 391 450 38,000  Level Albuquerque Center
Fri 04:21:35 PM 35.7247 -108.1244 235° Southwest 393 452 38,000  Level Albuquerque Center
Fri 04:22:37 PM 35.6536 -108.2494 235° Southwest 395 455 38,000  Level Albuquerque Center
Fri 04:23:39 PM 35.5906 -108.3575 234° Southwest 401 461 38,000  Level Albuquerque Center
Fri 04:24:41 PM 35.5183 -108.4831 235° Southwest 402 463 38,000  Level Albuquerque Center
Fri 04:25:43 PM 35.4553 -108.5911 234° Southwest 403 464 38,000  Level Albuquerque Center
Fri 04:26:45 PM 35.3942 -108.6986 235° Southwest 402 463 38,000  Level Albuquerque Center
Fri 04:27:47 PM 35.3203 -108.8242 234° Southwest 403 464 38,000  Level Albuquerque Center
Fri 04:28:49 PM 35.2583 -108.9322 235° Southwest 403 464 38,000  Level Albuquerque Center
Fri 04:29:51 PM 35.1842 -109.0553 234° Southwest 402 463 38,000  Level Albuquerque Center
Fri 04:30:53 PM 35.1219 -109.1631 235° Southwest 403 464 38,000  Level Albuquerque Center
Fri 04:31:55 PM 35.0497 -109.2869 235° Southwest 400 460 38,000 -97 Level Albuquerque Center
Fri 04:32:57 PM 34.9881 -109.3922 234° Southwest 398 458 37,800 -629 Descending Albuquerque Center
Fri 04:33:59 PM 34.9119 -109.5131 232° Southwest 400 460 36,700 -871 Descending Albuquerque Center
Fri 04:35:01 PM 34.8506 -109.6161 234° Southwest 395 455 36,000 -435 Descending Albuquerque Center
Fri 04:36:03 PM 34.7783 -109.7375 234° Southwest 395 455 35,800 -532 Descending Albuquerque Center
Fri 04:37:05 PM 34.7158 -109.8433 234° Southwest 398 458 34,900 -871 Descending Albuquerque Center
Fri 04:38:07 PM 34.6700 -109.9572 244° Southwest 392 451 34,000 -435 Descending Albuquerque Center
Fri 04:39:09 PM 34.6200 -110.0967 246° West 401 461 34,000  Level Albuquerque Center
Fri 04:40:11 PM 34.5800 -110.2158 248° West 400 460 34,000 -194 Level Albuquerque Center
Fri 04:41:13 PM 34.5258 -110.3431 243° Southwest 386 444 33,600 -1,065 Descending Albuquerque Center
Fri 04:42:15 PM 34.4878 -110.4531 247° West 391 450 31,800 -2,129 Descending Albuquerque Center
Fri 04:43:17 PM 34.4369 -110.5908 246° West 379 436 29,200 -2,274 Descending Albuquerque Center
Fri 04:44:19 PM 34.3922 -110.7042 244° Southwest 375 432 27,100 -2,032 Descending Albuquerque Center
Fri 04:45:21 PM 34.3428 -110.8131 241° Southwest 373 429 25,000 -2,016 Descending Albuquerque Center
Fri 04:46:24 PM 34.2728 -110.9011 226° Southwest 365 420 22,900 -1,968 Descending Albuquerque Center
Fri 04:47:26 PM 34.2047 -110.9886 227° Southwest 360 414 20,900 -1,935 Descending Albuquerque Center
Fri 04:48:28 PM 34.1361 -111.0775 227° Southwest 359 413 18,900 -1,790 Descending Albuquerque Center
Fri 04:49:30 PM 34.0672 -111.1664 227° Southwest 362 417 17,200 -1,984 Descending Albuquerque Center
Fri 04:50:32 PM 33.9878 -111.2683 227° Southwest 351 404 14,800 -2,129 Descending Albuquerque Center
Fri 04:51:34 PM 33.9228 -111.3514 227° Southwest 342 394 12,800 -1,548 Descending Albuquerque Center
Fri 04:52:36 PM 33.8569 -111.4278 224° Southwest 327 376 11,600 -1,065 Descending Albuquerque Center
Fri 04:53:38 PM 33.7853 -111.4869 214° Southwest 312 359 10,600 -871 Descending Albuquerque Center
Fri 04:54:40 PM 33.7219 -111.5422 216° Southwest 283 326 9,800 -871 Descending Albuquerque Center
Fri 04:55:42 PM 33.6639 -111.5881 213° Southwest 251 289 8,800 -871 Descending Albuquerque Center
Fri 04:56:44 PM 33.6000 -111.6167 200° South 243 280 8,000 -1,065 Descending Albuquerque Center
Fri 04:57:46 PM 33.5256 -111.6542 203° Southwest 241 277 6,600 -1,113 Descending Albuquerque Center
Fri 04:58:48 PM 33.4947 -111.7228 242° Southwest 236 272 5,700 -1,016 Descending Albuquerque Center
Fri 04:59:50 PM 33.4700 -111.7961 248° West 236 272 4,500 -1,161 Descending Albuquerque Center
Fri 05:00:52 PM 33.4458 -111.8656 247° West 227 261 3,300 -1,065 Descending Albuquerque Center
Fri 05:01:54 PM 33.4408 -111.9211 264° West 169 194 2,300 -871 Descending Albuquerque Center
Fri 05:02:56 PM 33.4414 -111.9669 271° West 141 162 1,500 -774 Descending Albuquerque Center
Fri 05:04:00 PM 33.4343 -112.0116 270° West  Level Estimated
Fri 05:11:00 PM 33.4343 -112.0116 90° East  Level Estimated

Login

Don't have an account? Register now (free) for customized features, flight alerts, and more!